KATY/ATY METAR and TAF weather

Enter ICAO airport designator
Station Type Date Time Source
KATY METAR 2020/05/30 05:53 UTC NOAA

KATY 300553Z AUTO 00000KT 10SM CLR 11/07 A3024 RMK AO2 SLP242 T01060072 10183 20106 401890072 51006


Station Type Date Time Source
KATY Decoded METAR 2020/05/30 05:53 UTC NOAA

WATERTOWN MUNICIPAL AIRPORT, SD, United States (KATY) 44-54N 097-09W 532M
May 30, 2020 - 01:53 AM EDT / 2020.05.30 0553 UTC
Wind: Calm:0
Visibility: 10 mile(s):0
Sky conditions: clear
Temperature: 51.1 F (10.6 C)
Dew Point: 45.0 F (7.2 C)
Relative Humidity: 79%
Pressure (altimeter): 30.24 in. Hg (1024 hPa)
Pressure tendency: 0.02 inches (0.6 hPa) higher than three hours ago
ob: KATY 300553Z AUTO 00000KT 10SM CLR 11/07 A3024 RMK AO2 SLP242 T01060072 10183 20106 401890072 51006
cycle: 6

Station Type Date Time Source
KATY TAF 2020/05/30 06:40 UTC NOAA

TAF KATY 300538Z 3006/3106 07005KT P6SM SCT080
FM310200 09005KT P6SM SCT250

Example: see airport list